Time;durP1;ratioP1;P1;durP2;ratioP2;P2;SDS_P1;SDS_P2;PMS_P1;PMS_P2;Temp;Humidity;BMP_temperature;BMP_pressure;BME280_temperature;BME280_humidity;BME280_pressure;Samples;Min_cycle;Max_cycle;Signal;HPM_P1;HPM_P2
2022/11/26 00:00:24;;;;;;;10.17;3.30;;;5.40;99.90;;;;;;4986853;28;20448;-90
2022/11/26 00:02:50;;;;;;;7.70;2.60;;;5.30;99.90;;;;;;5004517;28;20456;-85
2022/11/26 00:05:16;;;;;;;6.50;3.07;;;5.30;99.90;;;;;;5004635;28;20426;-90
2022/11/26 00:07:47;;;;;;;7.20;2.60;;;5.20;99.90;;;;;;5009301;28;20472;-84
2022/11/26 00:10:21;;;;;;;11.30;2.57;;;5.10;99.90;;;;;;5009914;28;20186;-95
2022/11/26 00:12:47;;;;;;;4.53;2.30;;;5.00;99.90;;;;;;5010305;28;20393;-88
2022/11/26 00:15:20;;;;;;;7.67;2.77;;;4.90;99.90;;;;;;5009142;28;20405;-84
2022/11/26 00:17:47;;;;;;;4.70;2.13;;;4.90;99.90;;;;;;5010584;28;20427;-88
2022/11/26 00:20:12;;;;;;;4.63;2.37;;;4.80;99.90;;;;;;5009800;28;20445;-83
2022/11/26 00:22:53;;;;;;;5.30;3.37;;;4.80;99.90;;;;;;5013114;28;20418;-83
2022/11/26 00:25:38;;;;;;;5.57;2.73;;;4.90;99.90;;;;;;4997459;28;20209;-88
2022/11/26 00:28:21;;;;;;;4.73;1.53;;;4.90;99.90;;;;;;5017530;28;20507;-84
2022/11/26 00:30:47;;;;;;;5.27;2.30;;;4.90;99.90;;;;;;4999258;28;20452;-91
2022/11/26 00:33:12;;;;;;;3.83;2.00;;;4.80;99.90;;;;;;5013966;28;20417;-85
2022/11/26 00:35:38;;;;;;;8.27;3.00;;;4.60;99.90;;;;;;5012937;28;20256;-84
2022/11/26 00:38:03;;;;;;;7.30;2.47;;;4.60;99.90;;;;;;5008878;28;20169;-85
2022/11/26 00:40:32;;;;;;;4.47;2.30;;;4.50;99.90;;;;;;5005008;28;20164;-95
2022/11/26 00:42:58;;;;;;;5.67;2.70;;;4.50;99.90;;;;;;5014548;28;20177;-94
2022/11/26 00:45:28;;;;;;;5.10;3.30;;;4.50;99.90;;;;;;5009788;28;20415;-93
2022/11/26 00:47:54;;;;;;;5.37;2.10;;;4.50;99.90;;;;;;4996227;28;20482;-87
2022/11/26 00:50:23;;;;;;;7.33;2.57;;;4.50;99.90;;;;;;5006581;28;20434;-92
2022/11/26 00:52:54;;;;;;;4.37;2.07;;;4.40;99.90;;;;;;5009118;28;20176;-91
2022/11/26 00:55:30;;;;;;;3.70;2.03;;;4.30;99.90;;;;;;5007947;28;20427;-83
2022/11/26 00:57:57;;;;;;;9.60;2.40;;;4.20;99.90;;;;;;4993050;28;20452;-85
2022/11/26 01:00:28;;;;;;;5.60;2.00;;;4.20;99.90;;;;;;5002160;28;20477;-84
2022/11/26 01:02:55;;;;;;;2.57;1.13;;;4.10;99.90;;;;;;4994002;28;20408;-84
2022/11/26 01:05:22;;;;;;;4.73;1.80;;;4.10;99.90;;;;;;5010695;28;20769;-85
2022/11/26 01:07:49;;;;;;;4.00;1.90;;;4.20;99.90;;;;;;4991951;28;20566;-84
2022/11/26 01:10:26;;;;;;;2.50;1.27;;;4.20;99.90;;;;;;5011952;28;20389;-84
2022/11/26 01:12:52;;;;;;;4.93;2.60;;;4.20;99.90;;;;;;5009010;28;20461;-86
2022/11/26 01:15:21;;;;;;;4.57;2.10;;;4.10;99.90;;;;;;4991753;28;20501;-85
2022/11/26 01:17:52;;;;;;;5.60;2.87;;;4.00;99.90;;;;;;4994181;28;20780;-83
2022/11/26 01:20:27;;;;;;;5.47;2.70;;;4.00;99.90;;;;;;5008029;28;20462;-86
2022/11/26 01:23:02;;;;;;;7.00;2.83;;;3.90;99.90;;;;;;4992622;28;20435;-87
2022/11/26 01:25:27;;;;;;;4.57;2.93;;;3.90;99.90;;;;;;5008571;28;20425;-95
2022/11/26 01:27:53;;;;;;;7.30;2.60;;;3.80;99.90;;;;;;5006173;28;20456;-93
2022/11/26 01:30:23;;;;;;;5.30;2.17;;;3.70;99.90;;;;;;5006706;28;20528;-96
2022/11/26 01:32:49;;;;;;;5.33;2.83;;;3.70;99.90;;;;;;5003826;28;20336;-94
2022/11/26 01:35:17;;;;;;;9.47;3.20;;;3.60;99.90;;;;;;4985566;28;20435;-95
2022/11/26 01:37:46;;;;;;;4.27;2.27;;;3.60;99.90;;;;;;5001457;28;20430;-94
2022/11/26 01:40:49;;;;;;;6.37;3.43;;;3.50;99.90;;;;;;4998403;28;20412;-95
2022/11/26 01:43:24;;;;;;;4.23;1.90;;;3.50;99.90;;;;;;4981278;28;20481;-94
2022/11/26 01:45:49;;;;;;;6.10;2.53;;;3.50;99.90;;;;;;4996479;28;20997;-95
2022/11/26 01:48:29;;;;;;;6.40;2.93;;;3.50;99.90;;;;;;4996276;28;20471;-94
2022/11/26 01:51:00;;;;;;;4.70;2.63;;;3.70;99.90;;;;;;4979318;28;20640;-95
2022/11/26 01:53:29;;;;;;;3.77;1.90;;;3.80;99.90;;;;;;4996395;28;20473;-95
2022/11/26 01:56:36;;;;;;;5.03;2.97;;;3.60;99.90;;;;;;5000703;28;20900;-90
2022/11/26 01:59:15;;;;;;;4.50;3.10;;;3.40;99.90;;;;;;4982819;28;20456;-95
2022/11/26 02:01:41;;;;;;;4.13;1.50;;;3.30;99.90;;;;;;5002187;28;20418;-95
2022/11/26 02:04:23;;;;;;;9.07;2.33;;;3.20;99.90;;;;;;5011315;28;20433;-89
2022/11/26 02:06:50;;;;;;;7.37;2.20;;;3.10;99.90;;;;;;4996780;28;20175;-84
2022/11/26 02:09:16;;;;;;;12.27;2.50;;;3.10;99.90;;;;;;4996679;28;20428;-84
2022/11/26 02:11:43;;;;;;;7.13;2.50;;;3.00;99.90;;;;;;4997329;28;20478;-89
2022/11/26 02:14:16;;;;;;;8.00;3.27;;;2.90;99.90;;;;;;5015992;28;20425;-84
2022/11/26 02:17:02;;;;;;;22.67;4.63;;;3.10;99.90;;;;;;5014436;28;20418;-89
2022/11/26 02:19:56;;;;;;;8.30;3.03;;;3.10;99.90;;;;;;4996331;28;20901;-89
2022/11/26 02:22:59;;;;;;;12.33;3.67;;;3.00;99.90;;;;;;4985694;28;20490;-93
2022/11/26 02:25:52;;;;;;;8.83;3.40;;;3.10;99.90;;;;;;4996545;28;20782;-95
2022/11/26 02:28:49;;;;;;;9.67;4.30;;;3.00;99.90;;;;;;4990354;28;20486;-93
2022/11/26 02:31:42;;;;;;;12.47;3.13;;;2.90;99.90;;;;;;5010951;28;20409;-86
2022/11/26 02:34:42;;;;;;;5.60;3.17;;;2.90;99.90;;;;;;5007968;28;20423;-84
2022/11/26 02:37:20;;;;;;;9.90;3.10;;;2.80;99.90;;;;;;5008016;28;20409;-86
2022/11/26 02:39:49;;;;;;;12.53;2.30;;;2.80;99.90;;;;;;5008522;28;20415;-91
2022/11/26 02:42:24;;;;;;;10.10;2.70;;;2.70;99.90;;;;;;5008812;28;20422;-88
2022/11/26 02:44:50;;;;;;;8.00;2.00;;;2.70;99.90;;;;;;5004601;28;20410;-83
2022/11/26 02:47:18;;;;;;;6.87;2.50;;;2.70;99.90;;;;;;5002106;28;20538;-88
2022/11/26 02:49:47;;;;;;;13.60;1.93;;;2.60;99.90;;;;;;5003666;28;20443;-94
2022/11/26 02:52:15;;;;;;;8.80;1.90;;;2.50;99.90;;;;;;5011428;28;20426;-94
2022/11/26 02:54:42;;;;;;;5.90;2.23;;;2.50;99.90;;;;;;5012541;28;20399;-95
2022/11/26 02:57:11;;;;;;;13.77;2.50;;;2.50;99.90;;;;;;4961377;28;20497;-91
2022/11/26 02:59:38;;;;;;;3.67;1.33;;;2.40;99.90;;;;;;5010267;28;20415;-93
2022/11/26 03:02:19;;;;;;;7.40;2.83;;;2.30;99.90;;;;;;5011247;28;20418;-94
2022/11/26 03:04:50;;;;;;;15.70;2.90;;;2.30;99.90;;;;;;4990716;28;20439;-95
2022/11/26 03:07:17;;;;;;;6.13;3.00;;;2.40;99.90;;;;;;5003740;28;20446;-93
2022/11/26 03:09:55;;;;;;;6.73;2.70;;;2.40;99.90;;;;;;5006022;28;20429;-85
2022/11/26 03:12:21;;;;;;;5.97;2.60;;;2.40;99.90;;;;;;5006052;28;20475;-93
2022/11/26 03:14:47;;;;;;;9.80;2.70;;;2.40;99.90;;;;;;5005052;28;20418;-95
2022/11/26 03:17:12;;;;;;;14.93;3.87;;;2.40;99.90;;;;;;4989612;28;20958;-85
2022/11/26 03:19:41;;;;;;;12.90;4.47;;;2.40;99.90;;;;;;4998573;28;20226;-86
2022/11/26 03:22:10;;;;;;;6.53;1.83;;;2.50;99.90;;;;;;5013502;28;20538;-88
2022/11/26 03:24:36;;;;;;;7.57;2.33;;;2.30;99.90;;;;;;5009062;28;20419;-93
2022/11/26 03:27:01;;;;;;;9.77;3.27;;;2.30;99.90;;;;;;4993249;28;20572;-95
2022/11/26 03:29:27;;;;;;;9.20;2.43;;;2.20;99.90;;;;;;5009515;28;20176;-94
2022/11/26 03:31:52;;;;;;;10.33;3.73;;;2.30;99.90;;;;;;5009394;28;20183;-95
2022/11/26 03:34:18;;;;;;;8.03;2.07;;;2.30;99.90;;;;;;4995789;28;20181;-91
2022/11/26 03:36:44;;;;;;;7.87;2.93;;;2.20;99.90;;;;;;4997386;28;20171;-95
2022/11/26 03:39:09;;;;;;;9.60;3.80;;;2.10;99.90;;;;;;5013625;28;20415;-91
2022/11/26 03:41:35;;;;;;;4.90;1.93;;;2.10;99.90;;;;;;5012317;28;20203;-88
2022/11/26 03:44:00;;;;;;;19.97;3.27;;;2.10;99.90;;;;;;5011753;28;20167;-93
2022/11/26 03:46:26;;;;;;;4.87;2.90;;;2.20;99.90;;;;;;5013572;28;20230;-90
2022/11/26 03:48:51;;;;;;;3.60;1.70;;;2.30;99.90;;;;;;4995486;28;20211;-90
2022/11/26 03:51:17;;;;;;;11.93;3.07;;;2.20;99.90;;;;;;5002716;28;20182;-95
2022/11/26 03:53:42;;;;;;;6.73;3.20;;;2.20;99.90;;;;;;4979305;28;20181;-96
2022/11/26 03:56:08;;;;;;;4.90;2.77;;;2.10;99.90;;;;;;5011552;28;20192;-91
2022/11/26 03:58:37;;;;;;;10.77;2.30;;;2.00;99.90;;;;;;5010486;28;20183;-83
2022/11/26 04:01:10;;;;;;;9.67;2.60;;;2.10;99.90;;;;;;4998020;28;20180;-93
2022/11/26 04:03:36;;;;;;;7.33;3.00;;;2.10;99.90;;;;;;5012142;28;20410;-84
2022/11/26 04:06:02;;;;;;;5.37;2.23;;;2.20;99.90;;;;;;4994996;28;20481;-92
2022/11/26 04:08:30;;;;;;;17.63;3.60;;;2.30;99.90;;;;;;5012549;28;20207;-94
2022/11/26 04:10:56;;;;;;;4.27;2.70;;;2.30;99.90;;;;;;5008945;28;20419;-93
2022/11/26 04:13:21;;;;;;;16.93;4.00;;;2.30;99.90;;;;;;5010690;28;20450;-94
2022/11/26 04:15:47;;;;;;;14.33;3.03;;;2.30;99.90;;;;;;4992338;28;20241;-94
2022/11/26 04:18:13;;;;;;;10.00;3.30;;;2.40;99.90;;;;;;5005327;28;20183;-94
2022/11/26 04:20:38;;;;;;;12.43;2.43;;;2.30;99.90;;;;;;5003722;28;20477;-95
2022/11/26 04:23:04;;;;;;;27.27;3.90;;;2.40;99.90;;;;;;5004269;28;20207;-93
2022/11/26 04:25:32;;;;;;;25.77;3.70;;;2.40;99.90;;;;;;5003891;28;20175;-95
2022/11/26 04:27:58;;;;;;;24.20;4.70;;;2.40;99.90;;;;;;5003233;28;20203;-85
2022/11/26 04:30:24;;;;;;;27.73;5.53;;;2.40;99.90;;;;;;5002181;28;20421;-95
2022/11/26 04:32:49;;;;;;;36.37;5.03;;;2.40;99.90;;;;;;5002874;28;20220;-94
2022/11/26 04:35:15;;;;;;;14.93;4.73;;;2.40;99.90;;;;;;4988404;28;20202;-92
2022/11/26 04:37:44;;;;;;;16.50;4.50;;;2.40;99.90;;;;;;5015558;28;20172;-94
2022/11/26 04:40:10;;;;;;;23.40;4.20;;;2.50;99.90;;;;;;4999183;28;20497;-84
2022/11/26 04:42:35;;;;;;;15.33;2.97;;;2.60;99.90;;;;;;4981082;28;20943;-83
2022/11/26 04:45:01;;;;;;;27.87;3.90;;;2.70;99.90;;;;;;4998795;28;20491;-83
2022/11/26 04:47:26;;;;;;;28.67;4.70;;;2.70;99.90;;;;;;4999794;28;20652;-84
2022/11/26 04:49:55;;;;;;;24.33;4.80;;;2.80;99.90;;;;;;4999164;28;20185;-83
2022/11/26 04:52:20;;;;;;;22.30;4.20;;;2.80;99.90;;;;;;4980917;28;20173;-83
2022/11/26 04:54:45;;;;;;;12.60;3.70;;;2.90;99.90;;;;;;4998734;28;20451;-83
2022/11/26 04:57:11;;;;;;;22.67;4.33;;;2.90;99.90;;;;;;4997929;28;20168;-84
2022/11/26 04:59:36;;;;;;;28.57;5.43;;;3.00;99.90;;;;;;4998499;28;20230;-83
2022/11/26 05:02:02;;;;;;;16.87;4.90;;;3.10;99.90;;;;;;4981569;28;20255;-83
2022/11/26 05:04:28;;;;;;;22.03;6.10;;;3.10;99.90;;;;;;4980899;28;20183;-83
2022/11/26 05:06:54;;;;;;;18.90;4.33;;;3.10;99.90;;;;;;4997470;28;20176;-83
2022/11/26 05:09:20;;;;;;;14.83;4.77;;;3.10;99.90;;;;;;4998114;28;20438;-84
2022/11/26 05:11:45;;;;;;;20.33;4.23;;;3.20;99.90;;;;;;4977730;28;20279;-83
2022/11/26 05:14:11;;;;;;;25.33;5.50;;;3.20;99.90;;;;;;4997973;28;20176;-84
2022/11/26 05:16:36;;;;;;;21.90;5.27;;;3.20;99.90;;;;;;4980042;28;20185;-86
2022/11/26 05:19:02;;;;;;;21.47;6.13;;;3.20;99.90;;;;;;4996323;28;20634;-83
2022/11/26 05:21:27;;;;;;;37.97;7.40;;;3.20;99.90;;;;;;4996791;28;20188;-84
2022/11/26 05:23:53;;;;;;;26.87;6.13;;;3.40;99.90;;;;;;4979518;28;20200;-84
2022/11/26 05:26:18;;;;;;;35.87;5.97;;;3.40;99.90;;;;;;4996304;28;20167;-84
2022/11/26 05:28:44;;;;;;;19.93;6.33;;;3.40;99.90;;;;;;4996575;28;20219;-84
2022/11/26 05:31:10;;;;;;;29.30;5.57;;;3.40;99.90;;;;;;4996475;28;20531;-85
2022/11/26 05:33:39;;;;;;;40.13;7.10;;;3.50;99.90;;;;;;4996349;28;20175;-83
2022/11/26 05:36:05;;;;;;;26.00;6.90;;;3.50;99.90;;;;;;4999406;28;20860;-84
2022/11/26 05:38:30;;;;;;;15.80;6.60;;;3.50;99.90;;;;;;4981345;28;20450;-83
2022/11/26 05:40:56;;;;;;;25.87;7.00;;;3.50;99.90;;;;;;4998725;28;20426;-83
2022/11/26 05:43:22;;;;;;;14.80;5.47;;;3.60;99.90;;;;;;4998624;28;20632;-84
2022/11/26 05:45:47;;;;;;;19.10;6.30;;;3.60;99.90;;;;;;4982033;28;20179;-84
2022/11/26 05:48:13;;;;;;;15.43;5.60;;;3.60;99.90;;;;;;4981461;28;20501;-84
2022/11/26 05:50:39;;;;;;;18.73;4.40;;;3.70;99.90;;;;;;4996990;28;20167;-83
2022/11/26 05:53:04;;;;;;;21.10;3.70;;;3.70;99.90;;;;;;4999550;28;20190;-83
2022/11/26 05:55:33;;;;;;;13.97;5.23;;;3.80;99.90;;;;;;4995389;28;20799;-85
2022/11/26 05:57:58;;;;;;;16.23;4.60;;;3.80;99.90;;;;;;4977912;28;20184;-85
2022/11/26 06:00:24;;;;;;;38.43;6.67;;;3.80;99.90;;;;;;4995319;28;20971;-86
2022/11/26 06:02:50;;;;;;;16.97;5.10;;;3.80;99.90;;;;;;4978040;28;20179;-84
2022/11/26 06:05:15;;;;;;;25.43;6.10;;;3.90;99.90;;;;;;4995003;28;20193;-91
2022/11/26 06:07:41;;;;;;;20.90;5.93;;;3.80;99.90;;;;;;4996444;28;20203;-84
2022/11/26 06:10:07;;;;;;;19.17;5.30;;;3.80;99.90;;;;;;4995927;28;20451;-84
2022/11/26 06:12:33;;;;;;;9.93;4.90;;;3.80;99.90;;;;;;4996083;28;20176;-85
2022/11/26 06:14:58;;;;;;;13.73;6.23;;;3.90;99.90;;;;;;4995452;28;20427;-83
2022/11/26 06:17:24;;;;;;;11.87;5.50;;;4.00;99.90;;;;;;4978758;28;20187;-84
2022/11/26 06:19:49;;;;;;;11.30;6.00;;;4.00;99.90;;;;;;4997102;28;20290;-85
2022/11/26 06:22:15;;;;;;;15.90;6.10;;;4.10;99.90;;;;;;4996020;28;20172;-85
2022/11/26 06:24:46;;;;;;;19.53;5.90;;;4.10;99.90;;;;;;4978735;28;20176;-84
2022/11/26 06:27:15;;;;;;;9.13;5.20;;;4.20;99.90;;;;;;4978024;28;20251;-84
2022/11/26 06:29:40;;;;;;;15.23;6.20;;;4.20;99.90;;;;;;4978502;28;20510;-84
2022/11/26 06:32:06;;;;;;;13.07;7.17;;;4.30;99.90;;;;;;4979321;28;20963;-84
2022/11/26 06:34:31;;;;;;;18.00;8.50;;;4.50;99.90;;;;;;4996140;28;20181;-83
2022/11/26 06:36:59;;;;;;;14.70;6.50;;;4.50;99.90;;;;;;4996473;28;20686;-84
2022/11/26 06:39:25;;;;;;;26.17;6.97;;;4.70;99.90;;;;;;4995560;28;20503;-86
2022/11/26 06:41:50;;;;;;;14.40;5.80;;;4.60;99.90;;;;;;4993995;28;20432;-83
2022/11/26 06:44:16;;;;;;;19.27;5.40;;;4.60;99.90;;;;;;4994215;28;20252;-83
2022/11/26 06:46:41;;;;;;;15.73;6.40;;;4.50;99.90;;;;;;4976870;28;20208;-83
2022/11/26 06:49:07;;;;;;;23.63;7.07;;;4.60;99.90;;;;;;4977770;28;20271;-83
2022/11/26 06:51:32;;;;;;;27.47;7.57;;;4.70;99.90;;;;;;4977492;28;20231;-83
2022/11/26 06:54:04;;;;;;;23.63;7.43;;;5.00;99.90;;;;;;4995151;28;20661;-83
2022/11/26 06:56:29;;;;;;;20.73;6.80;;;5.10;99.90;;;;;;4994410;28;20170;-83
2022/11/26 06:58:58;;;;;;;21.90;6.90;;;5.10;99.90;;;;;;4977485;28;20445;-83
2022/11/26 07:01:25;;;;;;;21.60;7.20;;;5.10;99.90;;;;;;4995073;28;20172;-84
2022/11/26 07:03:51;;;;;;;37.80;7.03;;;5.10;99.90;;;;;;4977282;28;20457;-83
2022/11/26 07:06:22;;;;;;;20.43;6.30;;;5.20;99.90;;;;;;4995043;28;20411;-83
2022/11/26 07:08:49;;;;;;;30.70;8.37;;;5.20;99.90;;;;;;4978056;28;20481;-83
2022/11/26 07:11:14;;;;;;;18.20;7.97;;;5.20;99.90;;;;;;5003039;28;20443;-83
2022/11/26 07:13:40;;;;;;;26.50;7.60;;;5.20;99.90;;;;;;5000086;28;20932;-83
2022/11/26 07:16:06;;;;;;;15.63;6.20;;;5.30;99.90;;;;;;5000719;28;20177;-86
2022/11/26 07:18:33;;;;;;;22.07;7.60;;;5.30;99.90;;;;;;5018287;28;20231;-83
2022/11/26 07:21:09;;;;;;;19.40;7.47;;;5.30;99.90;;;;;;5018721;28;20486;-82
2022/11/26 07:23:35;;;;;;;14.90;7.53;;;5.30;99.90;;;;;;5019159;28;20414;-83
2022/11/26 07:26:02;;;;;;;17.10;7.60;;;5.30;99.90;;;;;;5017595;28;20408;-84
2022/11/26 07:28:28;;;;;;;21.00;7.90;;;5.30;99.90;;;;;;5018661;28;20573;-83
2022/11/26 07:30:54;;;;;;;20.40;8.13;;;5.40;99.90;;;;;;4999472;28;20438;-83
2022/11/26 07:33:20;;;;;;;19.23;8.63;;;5.40;99.90;;;;;;5017084;28;20923;-83
2022/11/26 07:35:45;;;;;;;15.90;7.40;;;5.40;99.90;;;;;;5015382;28;20200;-84
2022/11/26 07:38:11;;;;;;;12.27;7.07;;;5.40;99.90;;;;;;5016255;28;20423;-82
2022/11/26 07:40:36;;;;;;;18.33;8.73;;;5.40;99.90;;;;;;4998363;28;20936;-82
2022/11/26 07:43:02;;;;;;;15.00;7.60;;;5.40;99.90;;;;;;5017018;28;20181;-83
2022/11/26 07:45:27;;;;;;;17.23;8.70;;;5.40;99.90;;;;;;4998798;28;20182;-82
2022/11/26 07:47:53;;;;;;;13.30;7.53;;;5.50;99.90;;;;;;4998154;28;20315;-83
2022/11/26 07:50:18;;;;;;;17.23;8.50;;;5.50;99.90;;;;;;5015470;28;20253;-82
2022/11/26 07:52:44;;;;;;;17.87;8.90;;;5.50;99.90;;;;;;5015758;28;20259;-84
2022/11/26 07:55:09;;;;;;;17.20;9.77;;;5.50;99.90;;;;;;5015978;28;20658;-82
2022/11/26 07:57:35;;;;;;;18.10;7.53;;;5.60;99.90;;;;;;4997794;28;20173;-82
2022/11/26 08:00:00;;;;;;;14.90;8.07;;;5.60;99.90;;;;;;4997368;28;20184;-83
2022/11/26 08:02:26;;;;;;;18.23;8.67;;;5.60;99.90;;;;;;5015606;28;20544;-83
2022/11/26 08:04:51;;;;;;;19.40;9.23;;;5.60;99.90;;;;;;4996641;28;20172;-83
2022/11/26 08:07:17;;;;;;;11.80;7.10;;;5.60;99.90;;;;;;5013229;28;20200;-85
2022/11/26 08:09:42;;;;;;;20.17;9.07;;;5.60;99.90;;;;;;5013675;28;20178;-84
2022/11/26 08:12:08;;;;;;;15.37;7.80;;;5.60;99.90;;;;;;5012894;28;20203;-85
2022/11/26 08:14:34;;;;;;;22.17;7.70;;;5.60;99.90;;;;;;5013516;28;20181;-86
2022/11/26 08:16:59;;;;;;;22.10;9.37;;;5.60;99.90;;;;;;5013733;28;20179;-85
2022/11/26 08:19:25;;;;;;;17.37;8.10;;;5.60;99.90;;;;;;5013475;28;20255;-86
2022/11/26 08:21:53;;;;;;;13.63;7.77;;;5.60;99.90;;;;;;5013362;28;20171;-85
2022/11/26 08:24:19;;;;;;;19.10;7.03;;;5.60;99.90;;;;;;4996252;28;20217;-86
2022/11/26 08:26:45;;;;;;;19.00;7.80;;;5.70;99.90;;;;;;4995516;28;20514;-87
2022/11/26 08:29:12;;;;;;;16.93;8.00;;;5.60;99.90;;;;;;5015934;28;20862;-87
2022/11/26 08:31:39;;;;;;;15.93;7.73;;;5.70;99.90;;;;;;5016176;28;20410;-86
2022/11/26 08:34:05;;;;;;;22.77;7.77;;;5.70;99.90;;;;;;5017127;28;20421;-88
2022/11/26 08:36:31;;;;;;;20.23;8.90;;;5.70;99.90;;;;;;5013864;28;20416;-86
2022/11/26 08:38:58;;;;;;;19.03;9.10;;;5.80;99.90;;;;;;4996741;28;20450;-85
2022/11/26 08:41:24;;;;;;;19.77;8.93;;;5.70;99.90;;;;;;4998054;28;20566;-85
2022/11/26 08:43:50;;;;;;;16.33;8.13;;;5.80;99.90;;;;;;5020240;28;20876;-91
2022/11/26 08:46:16;;;;;;;19.17;9.30;;;5.90;99.90;;;;;;5022490;28;20435;-90
2022/11/26 08:48:42;;;;;;;19.90;8.33;;;6.00;99.90;;;;;;5023671;28;20316;-86
2022/11/26 08:51:10;;;;;;;18.10;9.40;;;6.00;99.90;;;;;;5020592;28;20173;-87
2022/11/26 08:53:37;;;;;;;22.27;10.70;;;6.00;99.90;;;;;;5017126;28;20416;-87
2022/11/26 08:56:09;;;;;;;21.80;9.00;;;6.00;99.90;;;;;;4998608;28;20439;-86
2022/11/26 08:58:43;;;;;;;13.43;7.70;;;6.00;99.90;;;;;;5016115;28;20837;-86
2022/11/26 09:01:18;;;;;;;17.43;9.07;;;6.10;99.90;;;;;;5001129;28;20770;-86
2022/11/26 09:03:50;;;;;;;19.43;9.30;;;6.10;99.90;;;;;;5019032;28;20417;-87
2022/11/26 09:06:16;;;;;;;15.97;7.83;;;6.20;99.90;;;;;;4999187;28;20461;-86
2022/11/26 09:11:27;;;;;;;14.97;7.67;;;6.20;99.90;;;;;;5017811;28;20407;-86
2022/11/26 09:13:52;;;;;;;18.77;8.27;;;6.30;99.90;;;;;;5001797;28;20436;-86
2022/11/26 09:16:19;;;;;;;17.90;10.63;;;6.30;99.90;;;;;;4999646;28;20413;-85
2022/11/26 09:18:44;;;;;;;15.57;9.23;;;6.30;99.90;;;;;;5002047;28;20551;-85
2022/11/26 09:21:10;;;;;;;16.83;8.50;;;6.30;99.90;;;;;;5001029;28;20471;-85
2022/11/26 09:23:36;;;;;;;20.97;9.80;;;6.30;99.90;;;;;;5019497;28;20184;-85
2022/11/26 09:26:01;;;;;;;18.83;9.60;;;6.40;99.90;;;;;;5017301;28;20178;-85
2022/11/26 09:28:27;;;;;;;14.77;9.37;;;6.20;99.90;;;;;;5000374;28;20836;-86
2022/11/26 09:30:57;;;;;;;16.03;8.40;;;6.30;99.90;;;;;;4999226;28;20178;-85
2022/11/26 09:33:22;;;;;;;22.30;10.47;;;6.20;99.90;;;;;;5004754;28;20618;-86
2022/11/26 09:36:01;;;;;;;17.40;9.60;;;6.20;99.90;;;;;;5000331;28;20416;-86
2022/11/26 09:38:27;;;;;;;19.67;9.57;;;6.30;99.90;;;;;;5021548;28;20224;-87
2022/11/26 09:41:10;;;;;;;16.77;9.50;;;6.40;99.90;;;;;;5019633;28;20414;-88
2022/11/26 09:43:55;;;;;;;17.73;10.30;;;6.40;99.90;;;;;;5002642;28;20542;-86
2022/11/26 09:46:30;;;;;;;20.83;10.03;;;6.40;99.90;;;;;;5021300;28;20501;-85
2022/11/26 09:48:58;;;;;;;21.80;10.40;;;6.40;99.90;;;;;;5017640;28;20478;-85
2022/11/26 09:51:24;;;;;;;16.97;10.20;;;6.50;99.90;;;;;;5002057;28;20414;-88
2022/11/26 09:53:51;;;;;;;22.93;11.63;;;6.50;99.90;;;;;;5000325;28;20988;-85
2022/11/26 09:56:31;;;;;;;19.77;10.53;;;6.60;99.90;;;;;;5019354;28;20498;-85
2022/11/26 09:59:02;;;;;;;21.37;8.60;;;6.60;99.90;;;;;;4999456;28;20422;-85
2022/11/26 10:01:29;;;;;;;18.23;9.47;;;6.60;99.90;;;;;;4999389;28;20414;-85
2022/11/26 10:03:55;;;;;;;17.53;9.83;;;6.70;99.90;;;;;;5016827;28;20429;-85
2022/11/26 10:06:42;;;;;;;18.50;9.50;;;6.60;99.90;;;;;;5015096;28;20410;-85
2022/11/26 10:09:16;;;;;;;17.17;10.60;;;6.60;99.90;;;;;;5016667;28;20219;-85
2022/11/26 10:11:58;;;;;;;19.37;9.47;;;6.70;99.90;;;;;;5016560;28;20425;-85
2022/11/26 10:15:10;;;;;;;10.50;7.00;;;6.70;99.90;;;;;;5016932;28;20472;-85
2022/11/26 10:18:01;;;;;;;19.47;10.60;;;6.80;99.90;;;;;;4981690;28;20496;-87
2022/11/26 10:20:35;;;;;;;11.80;8.50;;;6.90;99.90;;;;;;5019133;28;21047;-88
2022/11/26 10:23:15;;;;;;;16.57;8.63;;;7.00;99.90;;;;;;5017094;28;20432;-85
2022/11/26 10:25:54;;;;;;;14.60;9.13;;;7.00;99.90;;;;;;4998934;28;20933;-87
2022/11/26 10:28:34;;;;;;;16.53;7.60;;;7.00;99.90;;;;;;4999720;28;20470;-87
2022/11/26 10:31:11;;;;;;;15.53;8.37;;;7.10;99.90;;;;;;5016148;28;20922;-86
2022/11/26 10:33:55;;;;;;;15.50;6.70;;;7.10;99.90;;;;;;5018005;28;20411;-89
2022/11/26 10:36:33;;;;;;;12.73;7.50;;;7.20;99.90;;;;;;5017664;28;20413;-86
2022/11/26 10:38:59;;;;;;;19.07;8.73;;;7.20;99.90;;;;;;5001450;28;20426;-87
2022/11/26 10:41:30;;;;;;;14.00;7.27;;;7.30;99.90;;;;;;5016926;28;20497;-88
2022/11/26 10:43:56;;;;;;;17.20;8.67;;;7.30;99.90;;;;;;5019414;28;20411;-87
2022/11/26 10:46:35;;;;;;;15.27;7.67;;;7.50;99.90;;;;;;5019378;28;20975;-87
2022/11/26 10:49:28;;;;;;;17.70;8.00;;;7.40;99.90;;;;;;5000164;28;20524;-87
2022/11/26 10:52:01;;;;;;;15.83;7.50;;;7.50;99.90;;;;;;5015456;28;20822;-86
2022/11/26 10:54:37;;;;;;;15.13;7.70;;;7.60;99.90;;;;;;5001304;28;20818;-85
2022/11/26 10:57:08;;;;;;;15.10;8.10;;;7.70;99.90;;;;;;4999748;28;20411;-84
2022/11/26 10:59:43;;;;;;;13.43;7.40;;;7.40;99.90;;;;;;5018132;28;20965;-84
2022/11/26 11:02:29;;;;;;;15.07;9.00;;;7.40;99.90;;;;;;5017646;28;20411;-84
2022/11/26 11:04:56;;;;;;;15.80;7.70;;;7.30;99.90;;;;;;5016366;28;20935;-85
2022/11/26 11:07:32;;;;;;;13.13;6.33;;;7.20;99.90;;;;;;4984943;28;20818;-86
2022/11/26 11:10:12;;;;;;;14.60;7.90;;;7.40;99.90;;;;;;4998103;28;20430;-87
2022/11/26 11:12:59;;;;;;;11.73;6.27;;;7.40;99.90;;;;;;5000346;28;20941;-83
2022/11/26 11:15:27;;;;;;;17.00;8.97;;;7.20;99.90;;;;;;4997877;28;20438;-87
2022/11/26 11:17:57;;;;;;;13.80;7.60;;;7.10;99.90;;;;;;5016045;28;20483;-84
2022/11/26 11:20:49;;;;;;;10.57;5.57;;;7.10;99.90;;;;;;4999204;28;20514;-84
2022/11/26 11:23:14;;;;;;;11.33;6.33;;;7.00;99.90;;;;;;5016299;28;20990;-86
2022/11/26 11:25:45;;;;;;;17.13;6.83;;;7.00;99.90;;;;;;4998607;28;20431;-87
2022/11/26 11:28:21;;;;;;;19.53;9.00;;;7.10;99.90;;;;;;5015741;28;20225;-85
2022/11/26 11:31:16;;;;;;;17.80;7.27;;;7.20;99.90;;;;;;5015741;28;20459;-86
2022/11/26 11:33:42;;;;;;;14.43;6.20;;;7.20;99.90;;;;;;4999809;28;20772;-87
2022/11/26 11:36:13;;;;;;;15.73;8.43;;;7.30;99.90;;;;;;4998620;28;20412;-86
2022/11/26 11:38:50;;;;;;;16.60;7.93;;;7.30;99.90;;;;;;5017673;28;20570;-88
2022/11/26 11:41:22;;;;;;;20.87;9.47;;;7.30;99.90;;;;;;5000374;28;20449;-87
2022/11/26 11:43:48;;;;;;;15.33;7.23;;;7.50;99.90;;;;;;4999114;28;20434;-86
2022/11/26 11:46:38;;;;;;;19.40;8.10;;;7.60;99.90;;;;;;5017248;28;20426;-85
2022/11/26 11:49:24;;;;;;;20.80;8.60;;;7.60;99.90;;;;;;5015694;28;20660;-85
2022/11/26 11:52:20;;;;;;;13.90;7.33;;;7.70;99.90;;;;;;5014984;28;20406;-85
2022/11/26 11:54:58;;;;;;;17.37;8.10;;;7.70;99.90;;;;;;4998521;28;20430;-87
2022/11/26 11:57:57;;;;;;;21.47;10.23;;;7.70;99.90;;;;;;5015630;28;20461;-86
2022/11/26 12:00:37;;;;;;;20.13;8.80;;;7.70;99.90;;;;;;5026082;28;20416;-83
2022/11/26 12:03:36;;;;;;;17.00;9.43;;;7.70;99.90;;;;;;5006451;28;20508;-89
2022/11/26 12:06:14;;;;;;;16.40;9.00;;;7.70;99.90;;;;;;5024798;28;20436;-85
2022/11/26 12:09:17;;;;;;;13.50;8.00;;;7.60;99.90;;;;;;5020950;28;20814;-85
2022/11/26 12:11:54;;;;;;;18.83;9.93;;;7.60;99.90;;;;;;4901639;29;20489;-85
2022/11/26 12:14:31;;;;;;;17.70;7.90;;;7.60;99.90;;;;;;4994698;28;20426;-85
2022/11/26 12:17:05;;;;;;;17.97;8.83;;;7.60;99.90;;;;;;5024626;28;20441;-87
2022/11/26 12:19:37;;;;;;;19.77;9.93;;;7.60;99.90;;;;;;5004095;28;20986;-86
2022/11/26 12:22:44;;;;;;;15.07;8.30;;;7.80;99.90;;;;;;5018945;28;20492;-93
2022/11/26 12:25:26;;;;;;;23.23;10.10;;;7.80;99.90;;;;;;5020906;28;20430;-93
2022/11/26 12:27:55;;;;;;;18.00;8.17;;;7.80;99.90;;;;;;5003620;28;20477;-90
2022/11/26 12:30:25;;;;;;;14.93;8.17;;;7.90;99.90;;;;;;5019990;28;20413;-86
2022/11/26 12:32:55;;;;;;;16.53;8.67;;;7.90;99.90;;;;;;5019116;28;20418;-85
2022/11/26 12:35:38;;;;;;;17.97;7.80;;;8.10;99.90;;;;;;5024342;28;20924;-88
2022/11/26 12:38:14;;;;;;;16.83;8.30;;;8.30;99.90;;;;;;5022854;28;20420;-87
2022/11/26 12:40:47;;;;;;;16.40;7.73;;;8.30;99.90;;;;;;5019656;28;20486;-88
2022/11/26 12:43:15;;;;;;;12.77;7.20;;;8.20;99.90;;;;;;5010418;28;20679;-89
2022/11/26 12:45:53;;;;;;;18.43;7.20;;;8.20;99.90;;;;;;5024990;28;20450;-87
2022/11/26 12:48:30;;;;;;;15.97;7.67;;;8.10;99.90;;;;;;5029653;28;20851;-86
2022/11/26 12:51:13;;;;;;;13.90;6.80;;;8.00;99.90;;;;;;5002395;28;20411;-87
2022/11/26 12:53:46;;;;;;;18.03;8.80;;;8.00;99.90;;;;;;5021226;28;20425;-87
2022/11/26 12:56:24;;;;;;;13.90;7.30;;;8.00;99.90;;;;;;5023184;28;20437;-90
2022/11/26 12:58:58;;;;;;;14.50;8.20;;;8.00;99.90;;;;;;5022475;28;20408;-87
2022/11/26 13:01:24;;;;;;;13.93;7.40;;;8.10;99.90;;;;;;5029055;28;20500;-87
2022/11/26 13:03:51;;;;;;;14.97;8.00;;;8.10;99.90;;;;;;5026712;28;20773;-87
2022/11/26 13:06:41;;;;;;;12.30;7.70;;;8.10;99.90;;;;;;5025943;28;20426;-86
2022/11/26 13:09:19;;;;;;;15.20;8.90;;;8.10;99.90;;;;;;5006711;28;20489;-87